Time;durP1;ratioP1;P1;durP2;ratioP2;P2;SDS_P1;SDS_P2;PMS_P1;PMS_P2;Temp;Humidity;BMP_temperature;BMP_pressure;BME280_temperature;BME280_humidity;BME280_pressure;Samples;Min_cycle;Max_cycle;Signal;HPM_P1;HPM_P2
2022/09/10 00:00:37;;;;;;;4.82;2.67;;;;;;;;;;5091756;28;20035;-83
2022/09/10 00:03:04;;;;;;;4.13;2.40;;;;;;;;;;5094995;28;20016;-81
2022/09/10 00:05:29;;;;;;;5.80;3.20;;;;;;;;;;5097799;28;20398;-83
2022/09/10 00:07:55;;;;;;;9.10;3.65;;;;;;;;;;5093735;28;20034;-83
2022/09/10 00:10:21;;;;;;;3.22;2.28;;;;;;;;;;5092130;28;20383;-84
2022/09/10 00:12:47;;;;;;;3.67;2.85;;;;;;;;;;5088601;28;20119;-83
2022/09/10 00:15:16;;;;;;;4.20;2.78;;;;;;;;;;5092051;28;20065;-82
2022/09/10 00:17:42;;;;;;;4.20;3.30;;;;;;;;;;5092741;28;20020;-83
2022/09/10 00:20:09;;;;;;;4.18;2.80;;;;;;;;;;5091767;28;20031;-82
2022/09/10 00:22:35;;;;;;;3.08;2.35;;;;;;;;;;5092276;28;20020;-83
2022/09/10 00:25:00;;;;;;;6.35;2.95;;;;;;;;;;5092348;28;20468;-83
2022/09/10 00:27:26;;;;;;;3.72;2.60;;;;;;;;;;5090420;28;20127;-83
2022/09/10 00:29:53;;;;;;;5.32;3.20;;;;;;;;;;5093080;28;20028;-83
2022/09/10 00:32:20;;;;;;;6.57;3.03;;;;;;;;;;5092165;28;20020;-84
2022/09/10 00:34:46;;;;;;;4.78;2.65;;;;;;;;;;5089736;28;20513;-84
2022/09/10 00:37:13;;;;;;;4.72;3.10;;;;;;;;;;5092210;28;20028;-82
2022/09/10 00:39:39;;;;;;;4.43;2.88;;;;;;;;;;5091671;28;20479;-83
2022/09/10 00:42:04;;;;;;;3.33;2.38;;;;;;;;;;5091696;28;20121;-83
2022/09/10 00:44:37;;;;;;;6.13;3.28;;;;;;;;;;5091597;28;20030;-83
2022/09/10 00:47:04;;;;;;;6.13;2.95;;;;;;;;;;5091030;28;20035;-84
2022/09/10 00:49:39;;;;;;;3.53;2.60;;;;;;;;;;5092088;28;20411;-83
2022/09/10 00:52:06;;;;;;;4.30;2.58;;;;;;;;;;5089480;28;20526;-82
2022/09/10 00:54:34;;;;;;;4.18;2.75;;;;;;;;;;5091348;28;20030;-83
2022/09/10 00:57:04;;;;;;;4.55;2.60;;;;;;;;;;5091565;28;20081;-83
2022/09/10 00:59:30;;;;;;;6.68;2.90;;;;;;;;;;5089997;28;20131;-83
2022/09/10 01:01:56;;;;;;;5.78;2.97;;;;;;;;;;5091286;28;20099;-83
2022/09/10 01:04:21;;;;;;;7.50;3.50;;;;;;;;;;5090958;28;20027;-84
2022/09/10 01:06:50;;;;;;;3.75;2.55;;;;;;;;;;5091479;28;20027;-83
2022/09/10 01:09:16;;;;;;;3.67;2.73;;;;;;;;;;5090353;28;20078;-82
2022/09/10 01:11:57;;;;;;;4.13;3.28;;;;;;;;;;5091269;28;20442;-83
2022/09/10 01:14:22;;;;;;;5.32;3.00;;;;;;;;;;5093049;28;20116;-81
2022/09/10 01:17:06;;;;;;;4.82;2.45;;;;;;;;;;5091787;28;20081;-82
2022/09/10 01:19:57;;;;;;;4.55;2.85;;;;;;;;;;5090989;28;20028;-83
2022/09/10 01:22:48;;;;;;;4.40;2.42;;;;;;;;;;5088990;28;20085;-84
2022/09/10 01:25:52;;;;;;;4.60;2.40;;;;;;;;;;5086764;28;20031;-82
2022/09/10 01:28:36;;;;;;;5.28;2.80;;;;;;;;;;5068829;28;20043;-82
2022/09/10 01:31:10;;;;;;;4.90;3.50;;;;;;;;;;5052067;28;20024;-82
2022/09/10 01:33:54;;;;;;;5.03;2.60;;;;;;;;;;5088701;28;20559;-82
2022/09/10 01:36:24;;;;;;;3.83;2.60;;;;;;;;;;5091498;28;20055;-82
2022/09/10 01:38:50;;;;;;;3.35;2.28;;;;;;;;;;5090066;28;20028;-82
2022/09/10 01:41:16;;;;;;;4.22;2.70;;;;;;;;;;5094365;28;20028;-82
2022/09/10 01:43:42;;;;;;;3.50;2.30;;;;;;;;;;5096036;28;20024;-80
2022/09/10 01:46:19;;;;;;;3.42;2.67;;;;;;;;;;5095677;28;20024;-82
2022/09/10 01:49:17;;;;;;;3.78;2.78;;;;;;;;;;5090725;28;20101;-82
2022/09/10 01:51:48;;;;;;;3.58;2.80;;;;;;;;;;5090763;28;20032;-81
2022/09/10 01:54:35;;;;;;;5.55;3.22;;;;;;;;;;5096071;28;20032;-83
2022/09/10 01:57:13;;;;;;;2.95;2.15;;;;;;;;;;5092084;28;20035;-82
2022/09/10 01:59:53;;;;;;;4.78;2.95;;;;;;;;;;5092515;28;20463;-81
2022/09/10 02:02:22;;;;;;;3.65;3.08;;;;;;;;;;5094459;28;20050;-84
2022/09/10 02:04:50;;;;;;;5.05;2.95;;;;;;;;;;5091361;28;20020;-83
2022/09/10 02:07:19;;;;;;;3.80;2.65;;;;;;;;;;5093028;28;20119;-82
2022/09/10 02:09:45;;;;;;;4.83;3.10;;;;;;;;;;5089019;28;20533;-83
2022/09/10 02:12:19;;;;;;;6.20;3.88;;;;;;;;;;5090011;28;20285;-82
2022/09/10 02:14:54;;;;;;;6.28;3.05;;;;;;;;;;5092966;28;20491;-81
2022/09/10 02:17:22;;;;;;;4.88;2.70;;;;;;;;;;5093201;28;20032;-81
2022/09/10 02:19:50;;;;;;;3.70;2.65;;;;;;;;;;5094320;28;20487;-82
2022/09/10 02:22:16;;;;;;;4.18;2.97;;;;;;;;;;5092858;28;20024;-82
2022/09/10 02:24:43;;;;;;;4.55;2.63;;;;;;;;;;5094544;28;20110;-83
2022/09/10 02:27:10;;;;;;;4.45;2.80;;;;;;;;;;5094692;28;20070;-84
2022/09/10 02:29:37;;;;;;;4.32;2.65;;;;;;;;;;5092787;28;20470;-81
2022/09/10 02:32:03;;;;;;;4.38;2.72;;;;;;;;;;5095501;28;20430;-83
2022/09/10 02:34:29;;;;;;;4.60;3.10;;;;;;;;;;5092121;28;20020;-81
2022/09/10 02:36:56;;;;;;;3.60;2.72;;;;;;;;;;5093003;28;20365;-83
2022/09/10 02:39:22;;;;;;;3.80;2.53;;;;;;;;;;5097164;28;20048;-82
2022/09/10 02:41:47;;;;;;;5.65;3.28;;;;;;;;;;5095785;28;20054;-82
2022/09/10 02:44:12;;;;;;;4.20;2.88;;;;;;;;;;5094863;28;20077;-83
2022/09/10 02:46:38;;;;;;;5.30;3.20;;;;;;;;;;5095695;28;20031;-83
2022/09/10 02:49:04;;;;;;;4.65;3.10;;;;;;;;;;5092454;28;20115;-83
2022/09/10 02:51:30;;;;;;;4.20;2.60;;;;;;;;;;5094637;28;20026;-84
2022/09/10 02:53:55;;;;;;;6.60;3.25;;;;;;;;;;5093375;28;20032;-82
2022/09/10 02:56:22;;;;;;;4.88;3.15;;;;;;;;;;5094093;28;20059;-82
2022/09/10 02:58:48;;;;;;;5.43;2.47;;;;;;;;;;5095405;28;20376;-82
2022/09/10 03:01:17;;;;;;;3.80;2.45;;;;;;;;;;5098626;28;20027;-82
2022/09/10 03:03:49;;;;;;;2.95;2.58;;;;;;;;;;5096782;28;20020;-82
2022/09/10 03:06:14;;;;;;;3.25;2.35;;;;;;;;;;5099220;28;20077;-83
2022/09/10 03:08:39;;;;;;;4.90;3.13;;;;;;;;;;5099094;28;20031;-82
2022/09/10 03:11:05;;;;;;;3.45;2.75;;;;;;;;;;5096287;28;20506;-83
2022/09/10 03:13:31;;;;;;;3.80;2.90;;;;;;;;;;5094075;28;20032;-82
2022/09/10 03:15:57;;;;;;;5.40;2.45;;;;;;;;;;5094115;28;20046;-81
2022/09/10 03:18:23;;;;;;;5.35;3.50;;;;;;;;;;5097493;28;20089;-82
2022/09/10 03:20:50;;;;;;;4.85;3.08;;;;;;;;;;5094395;28;20035;-83
2022/09/10 03:23:16;;;;;;;3.60;2.47;;;;;;;;;;5095041;28;20020;-81
2022/09/10 03:25:42;;;;;;;4.95;2.65;;;;;;;;;;5094052;28;20027;-83
2022/09/10 03:28:08;;;;;;;6.72;3.47;;;;;;;;;;5094291;28;20028;-82
2022/09/10 03:30:35;;;;;;;4.05;3.20;;;;;;;;;;5089225;28;20056;-82
2022/09/10 03:33:01;;;;;;;3.65;2.80;;;;;;;;;;5093357;28;20028;-82
2022/09/10 03:35:26;;;;;;;4.30;3.13;;;;;;;;;;5096449;28;20463;-82
2022/09/10 03:37:52;;;;;;;8.02;3.80;;;;;;;;;;5095813;28;20380;-82
2022/09/10 03:40:18;;;;;;;4.88;2.95;;;;;;;;;;5097355;28;20486;-83
2022/09/10 03:42:44;;;;;;;3.08;2.42;;;;;;;;;;5097313;28;20035;-82
2022/09/10 03:45:10;;;;;;;4.10;2.70;;;;;;;;;;5096627;28;20061;-82
2022/09/10 03:47:36;;;;;;;4.07;2.88;;;;;;;;;;5093690;28;20062;-83
2022/09/10 03:50:03;;;;;;;5.95;3.92;;;;;;;;;;5093390;28;20035;-83
2022/09/10 03:52:29;;;;;;;5.25;3.10;;;;;;;;;;5095629;28;20039;-83
2022/09/10 03:54:54;;;;;;;4.25;2.60;;;;;;;;;;5093681;28;20024;-83
2022/09/10 03:57:21;;;;;;;6.75;3.67;;;;;;;;;;5096399;28;20041;-82
2022/09/10 03:59:46;;;;;;;3.22;2.92;;;;;;;;;;5096821;28;20034;-83
2022/09/10 04:02:13;;;;;;;5.35;3.33;;;;;;;;;;5094605;28;20107;-83
2022/09/10 04:04:39;;;;;;;6.07;3.60;;;;;;;;;;5093175;28;20052;-83
2022/09/10 04:07:05;;;;;;;4.03;2.60;;;;;;;;;;5096790;28;20462;-82
2022/09/10 04:09:31;;;;;;;4.50;2.90;;;;;;;;;;5096140;28;20024;-81
2022/09/10 04:11:58;;;;;;;5.10;3.13;;;;;;;;;;5091880;28;20028;-83
2022/09/10 04:14:23;;;;;;;5.45;3.03;;;;;;;;;;5096876;28;20035;-83
2022/09/10 04:16:49;;;;;;;6.28;3.88;;;;;;;;;;5096449;28;20050;-82
2022/09/10 04:19:14;;;;;;;6.13;4.38;;;;;;;;;;5093701;28;20024;-83
2022/09/10 04:21:40;;;;;;;7.90;5.25;;;;;;;;;;5095528;28;20480;-83
2022/09/10 04:24:08;;;;;;;9.50;6.60;;;;;;;;;;5095837;28;20024;-82
2022/09/10 04:26:34;;;;;;;12.00;3.83;;;;;;;;;;5095009;28;20376;-82
2022/09/10 04:28:59;;;;;;;5.78;3.70;;;;;;;;;;5093593;28;20117;-83
2022/09/10 04:31:24;;;;;;;4.28;3.10;;;;;;;;;;5095730;28;20129;-83
2022/09/10 04:33:50;;;;;;;6.00;3.40;;;;;;;;;;5094448;28;20032;-82
2022/09/10 04:36:16;;;;;;;5.07;3.03;;;;;;;;;;5094772;28;20406;-81
2022/09/10 04:38:42;;;;;;;5.40;3.50;;;;;;;;;;5095193;28;20034;-83
2022/09/10 04:41:08;;;;;;;5.57;2.97;;;;;;;;;;5095584;28;20023;-81
2022/09/10 04:43:34;;;;;;;4.93;3.40;;;;;;;;;;5091361;28;20077;-85
2022/09/10 04:46:00;;;;;;;4.60;3.17;;;;;;;;;;5091429;28;20436;-83
2022/09/10 04:48:25;;;;;;;4.53;3.17;;;;;;;;;;5093093;28;20056;-82
2022/09/10 04:50:51;;;;;;;4.28;3.20;;;;;;;;;;5093432;28;20047;-82
2022/09/10 04:53:17;;;;;;;4.15;2.88;;;;;;;;;;5096277;28;20023;-82
2022/09/10 04:55:44;;;;;;;4.15;3.08;;;;;;;;;;5094232;28;20035;-81
2022/09/10 04:58:10;;;;;;;8.82;5.60;;;;;;;;;;5092395;28;20134;-82
2022/09/10 05:00:37;;;;;;;3.58;2.60;;;;;;;;;;5091608;28;20096;-83
2022/09/10 05:03:04;;;;;;;8.73;4.43;;;;;;;;;;5092968;28;20456;-83
2022/09/10 05:05:30;;;;;;;5.00;3.53;;;;;;;;;;5093201;28;20464;-82
2022/09/10 05:07:56;;;;;;;6.65;3.58;;;;;;;;;;5092470;28;20084;-81
2022/09/10 05:10:23;;;;;;;5.72;3.22;;;;;;;;;;5086238;28;20044;-82
2022/09/10 05:12:48;;;;;;;5.55;2.88;;;;;;;;;;5092288;28;20028;-82
2022/09/10 05:15:14;;;;;;;4.03;2.92;;;;;;;;;;5090615;28;20020;-82
2022/09/10 05:17:39;;;;;;;4.95;2.97;;;;;;;;;;5091496;28;20035;-82
2022/09/10 05:20:06;;;;;;;4.97;3.45;;;;;;;;;;5094612;28;20024;-82
2022/09/10 05:22:33;;;;;;;3.97;3.30;;;;;;;;;;5091422;28;20077;-82
2022/09/10 05:24:59;;;;;;;4.65;3.08;;;;;;;;;;5092388;28;20543;-82
2022/09/10 05:27:24;;;;;;;6.35;3.78;;;;;;;;;;5090643;28;20154;-84
2022/09/10 05:29:50;;;;;;;5.60;3.75;;;;;;;;;;5090485;28;20032;-82
2022/09/10 05:32:15;;;;;;;4.03;2.90;;;;;;;;;;5092885;28;20024;-82
2022/09/10 05:34:40;;;;;;;6.82;3.80;;;;;;;;;;5092024;28;20034;-82
2022/09/10 05:37:07;;;;;;;4.68;3.17;;;;;;;;;;5091767;28;20070;-81
2022/09/10 05:39:33;;;;;;;5.82;3.97;;;;;;;;;;5095089;28;20074;-82
2022/09/10 05:42:01;;;;;;;6.28;4.25;;;;;;;;;;5090974;28;20056;-81
2022/09/10 05:44:26;;;;;;;5.88;3.75;;;;;;;;;;5094372;28;20042;-83
2022/09/10 05:46:52;;;;;;;10.27;3.58;;;;;;;;;;5093494;28;20095;-83
2022/09/10 05:49:17;;;;;;;6.38;3.83;;;;;;;;;;5092548;28;20099;-83
2022/09/10 05:51:42;;;;;;;9.13;4.03;;;;;;;;;;5090209;28;20154;-84
2022/09/10 05:54:08;;;;;;;6.82;3.50;;;;;;;;;;5093683;28;20042;-82
2022/09/10 05:56:33;;;;;;;5.93;3.53;;;;;;;;;;5093941;28;20475;-83
2022/09/10 05:58:59;;;;;;;5.40;4.05;;;;;;;;;;5092359;28;20024;-82
2022/09/10 06:01:24;;;;;;;19.25;12.23;;;;;;;;;;5088677;28;20062;-81
2022/09/10 06:03:50;;;;;;;17.45;11.40;;;;;;;;;;5090312;28;20024;-81
2022/09/10 06:06:16;;;;;;;8.32;5.43;;;;;;;;;;5090332;28;20055;-83
2022/09/10 06:08:42;;;;;;;7.10;4.72;;;;;;;;;;5090317;28;20086;-82
2022/09/10 06:11:09;;;;;;;4.32;3.58;;;;;;;;;;5090776;28;20048;-83
2022/09/10 06:13:38;;;;;;;5.45;3.72;;;;;;;;;;5094072;28;20024;-81
2022/09/10 06:16:04;;;;;;;6.63;4.43;;;;;;;;;;5094185;28;20133;-82
2022/09/10 06:18:30;;;;;;;7.85;4.53;;;;;;;;;;5094611;28;20111;-81
2022/09/10 06:21:04;;;;;;;7.60;4.97;;;;;;;;;;5094285;28;20463;-81
2022/09/10 06:23:30;;;;;;;6.60;4.78;;;;;;;;;;5094246;28;20028;-82
2022/09/10 06:26:05;;;;;;;7.32;4.25;;;;;;;;;;5094772;28;20024;-83
2022/09/10 06:28:33;;;;;;;7.82;5.30;;;;;;;;;;5091417;28;20024;-82
2022/09/10 06:30:59;;;;;;;11.50;5.25;;;;;;;;;;5095176;28;20031;-83
2022/09/10 06:33:25;;;;;;;8.10;4.40;;;;;;;;;;5093482;28;20357;-82
2022/09/10 06:35:55;;;;;;;7.00;4.35;;;;;;;;;;5093447;28;20031;-83
2022/09/10 06:38:21;;;;;;;8.13;4.43;;;;;;;;;;5093714;28;20119;-82
2022/09/10 06:40:54;;;;;;;7.95;4.85;;;;;;;;;;5093598;28;20038;-83
2022/09/10 06:43:24;;;;;;;9.60;4.50;;;;;;;;;;5093397;28;20038;-83
2022/09/10 06:45:51;;;;;;;11.15;5.13;;;;;;;;;;5092945;28;20046;-82
2022/09/10 06:48:21;;;;;;;9.65;4.90;;;;;;;;;;5093558;28;20036;-82
2022/09/10 06:50:57;;;;;;;9.57;5.13;;;;;;;;;;5093379;28;20027;-82
2022/09/10 06:53:24;;;;;;;8.25;4.63;;;;;;;;;;5093303;28;20042;-82
2022/09/10 06:55:54;;;;;;;7.07;5.15;;;;;;;;;;5090551;28;20555;-83
2022/09/10 06:58:21;;;;;;;7.40;5.60;;;;;;;;;;5093060;28;20616;-83
2022/09/10 07:00:46;;;;;;;6.63;4.43;;;;;;;;;;5092893;28;20067;-82
2022/09/10 07:03:14;;;;;;;7.28;4.72;;;;;;;;;;5092946;28;20047;-82
2022/09/10 07:05:39;;;;;;;8.48;5.65;;;;;;;;;;5092790;28;20031;-81
2022/09/10 07:08:05;;;;;;;9.68;6.18;;;;;;;;;;5090590;28;20429;-83
2022/09/10 07:10:31;;;;;;;11.55;5.50;;;;;;;;;;5092618;28;20424;-82
2022/09/10 07:12:56;;;;;;;11.82;5.35;;;;;;;;;;5092447;28;20066;-82
2022/09/10 07:15:21;;;;;;;8.50;5.25;;;;;;;;;;5092909;28;20440;-81
2022/09/10 07:17:47;;;;;;;9.30;5.43;;;;;;;;;;5092921;28;20526;-82
2022/09/10 07:20:13;;;;;;;10.88;5.53;;;;;;;;;;5092629;28;20062;-83
2022/09/10 07:22:39;;;;;;;7.68;5.30;;;;;;;;;;5092048;28;20418;-82
2022/09/10 07:25:06;;;;;;;9.90;5.53;;;;;;;;;;5092287;28;20024;-82
2022/09/10 07:27:32;;;;;;;10.68;5.05;;;;;;;;;;5091286;28;20368;-86
2022/09/10 07:29:57;;;;;;;11.07;5.22;;;;;;;;;;5092204;28;20028;-82
2022/09/10 07:32:23;;;;;;;9.98;4.15;;;;;;;;;;5092423;28;20039;-81
2022/09/10 07:34:48;;;;;;;7.82;4.82;;;;;;;;;;5092543;28;20031;-82
2022/09/10 07:37:16;;;;;;;6.50;4.43;;;;;;;;;;5092224;28;20400;-82
2022/09/10 07:39:42;;;;;;;8.18;4.57;;;;;;;;;;5092382;28;20028;-81
2022/09/10 07:42:09;;;;;;;6.28;4.07;;;;;;;;;;5092064;28;20074;-82
2022/09/10 07:44:34;;;;;;;9.70;4.18;;;;;;;;;;5092157;28;20361;-85
2022/09/10 07:47:02;;;;;;;7.55;4.30;;;;;;;;;;5092161;28;20027;-83
2022/09/10 07:49:28;;;;;;;5.60;3.97;;;;;;;;;;5092447;28;20483;-82
2022/09/10 07:51:53;;;;;;;8.80;4.85;;;;;;;;;;5092074;28;20020;-82
2022/09/10 07:54:19;;;;;;;8.93;4.63;;;;;;;;;;5092239;28;20023;-82
2022/09/10 07:56:44;;;;;;;7.75;4.68;;;;;;;;;;5092146;28;20023;-83
2022/09/10 07:59:10;;;;;;;7.80;4.13;;;;;;;;;;5090682;28;20032;-83
2022/09/10 08:01:36;;;;;;;6.45;4.07;;;;;;;;;;5091834;28;20031;-81
2022/09/10 08:04:02;;;;;;;5.97;4.57;;;;;;;;;;5092210;28;20016;-80
2022/09/10 08:06:27;;;;;;;7.68;3.80;;;;;;;;;;5091961;28;20365;-83
2022/09/10 08:08:53;;;;;;;6.57;4.45;;;;;;;;;;5088909;28;20119;-83
2022/09/10 08:11:19;;;;;;;7.82;4.57;;;;;;;;;;5091797;28;20048;-84
2022/09/10 08:13:49;;;;;;;4.88;3.60;;;;;;;;;;5091901;28;20356;-83
2022/09/10 08:16:18;;;;;;;6.00;3.70;;;;;;;;;;5091799;28;20027;-83
2022/09/10 08:18:45;;;;;;;6.47;4.00;;;;;;;;;;5091918;28;20532;-81
2022/09/10 08:21:11;;;;;;;5.93;4.65;;;;;;;;;;5090194;28;20020;-83
2022/09/10 08:23:38;;;;;;;6.45;3.67;;;;;;;;;;5091332;28;20023;-83
2022/09/10 08:26:06;;;;;;;5.82;4.05;;;;;;;;;;5091809;28;20036;-82
2022/09/10 08:28:33;;;;;;;6.43;4.80;;;;;;;;;;5090947;28;20020;-82
2022/09/10 08:31:01;;;;;;;7.95;4.10;;;;;;;;;;5091764;28;20034;-81
2022/09/10 08:33:28;;;;;;;6.30;4.28;;;;;;;;;;5091120;28;20024;-85
2022/09/10 08:35:56;;;;;;;11.68;4.00;;;;;;;;;;5091564;28;20035;-82
2022/09/10 08:38:28;;;;;;;5.95;4.18;;;;;;;;;;5091535;28;20349;-82
2022/09/10 08:40:55;;;;;;;5.85;3.65;;;;;;;;;;5089340;28;20464;-82
2022/09/10 08:43:31;;;;;;;6.55;4.63;;;;;;;;;;5088664;28;20052;-82
2022/09/10 08:46:01;;;;;;;9.30;4.63;;;;;;;;;;5089087;28;20032;-82
2022/09/10 08:48:30;;;;;;;9.27;4.03;;;;;;;;;;5091353;28;20053;-82
2022/09/10 08:51:26;;;;;;;6.35;4.18;;;;;;;;;;5090984;28;20093;-83
2022/09/10 08:53:59;;;;;;;6.10;3.92;;;;;;;;;;5089513;28;20020;-83
2022/09/10 08:56:26;;;;;;;6.90;4.47;;;;;;;;;;5091142;28;20035;-83
2022/09/10 08:59:03;;;;;;;7.38;4.25;;;;;;;;;;5090698;28;20023;-83
2022/09/10 09:01:34;;;;;;;6.22;3.63;;;;;;;;;;5090964;28;20106;-83
2022/09/10 09:04:07;;;;;;;9.13;4.45;;;;;;;;;;5090654;28;20103;-82
2022/09/10 09:06:40;;;;;;;6.00;4.30;;;;;;;;;;5088800;28;20034;-83
2022/09/10 09:09:05;;;;;;;4.90;3.80;;;;;;;;;;5090192;28;20036;-82
2022/09/10 09:11:47;;;;;;;5.22;4.15;;;;;;;;;;5090564;28;20365;-83
2022/09/10 09:14:23;;;;;;;5.50;3.60;;;;;;;;;;5090599;28;20059;-83
2022/09/10 09:17:10;;;;;;;5.00;3.60;;;;;;;;;;5087843;28;20480;-83
2022/09/10 09:19:51;;;;;;;5.68;3.50;;;;;;;;;;5090628;28;20029;-83
2022/09/10 09:22:19;;;;;;;7.20;4.05;;;;;;;;;;5089862;28;20058;-81
2022/09/10 09:25:12;;;;;;;5.35;3.97;;;;;;;;;;5090447;28;20028;-83
2022/09/10 09:27:41;;;;;;;6.68;4.82;;;;;;;;;;5088362;28;20490;-84
2022/09/10 09:30:17;;;;;;;6.65;4.38;;;;;;;;;;5090533;28;20028;-84
2022/09/10 09:32:45;;;;;;;6.32;3.75;;;;;;;;;;5090424;28;20040;-83
2022/09/10 09:35:35;;;;;;;5.25;3.70;;;;;;;;;;5090498;28;20030;-84
2022/09/10 09:38:24;;;;;;;6.90;4.40;;;;;;;;;;5090440;28;20492;-83
2022/09/10 09:40:57;;;;;;;13.27;3.80;;;;;;;;;;5090548;28;20077;-83
2022/09/10 09:43:37;;;;;;;9.48;4.47;;;;;;;;;;5090488;28;20028;-82
2022/09/10 09:46:06;;;;;;;6.05;4.85;;;;;;;;;;5089811;28;20028;-83
2022/09/10 09:48:37;;;;;;;6.05;4.38;;;;;;;;;;5094632;28;20059;-83
2022/09/10 09:51:03;;;;;;;7.40;4.82;;;;;;;;;;5094547;28;20031;-82
2022/09/10 09:53:29;;;;;;;7.43;3.88;;;;;;;;;;5094704;28;20035;-81
2022/09/10 09:56:02;;;;;;;6.40;4.32;;;;;;;;;;5094203;28;20036;-82
2022/09/10 09:58:30;;;;;;;6.22;4.38;;;;;;;;;;5094343;28;20063;-83
2022/09/10 10:01:02;;;;;;;10.20;4.90;;;;;;;;;;5091354;28;20024;-84
2022/09/10 10:03:42;;;;;;;7.50;3.92;;;;;;;;;;5094460;28;20020;-83
2022/09/10 10:06:10;;;;;;;5.93;4.05;;;;;;;;;;5094566;28;20043;-84
2022/09/10 10:08:51;;;;;;;6.00;3.90;;;;;;;;;;5094024;28;20142;-83
2022/09/10 10:11:20;;;;;;;8.20;4.07;;;;;;;;;;5094187;28;20050;-83
2022/09/10 10:13:47;;;;;;;8.63;4.57;;;;;;;;;;5093952;28;20036;-83
2022/09/10 10:16:34;;;;;;;5.03;3.90;;;;;;;;;;5094105;28;20036;-83
2022/09/10 10:19:00;;;;;;;7.28;4.22;;;;;;;;;;5090319;28;20365;-83
2022/09/10 10:21:33;;;;;;;4.70;3.58;;;;;;;;;;5094063;28;20054;-83
2022/09/10 10:23:59;;;;;;;5.95;3.53;;;;;;;;;;5093929;28;20023;-83
2022/09/10 10:26:33;;;;;;;7.38;4.00;;;;;;;;;;5094128;28;20032;-83
2022/09/10 10:29:05;;;;;;;4.53;3.50;;;;;;;;;;5093512;28;20024;-83
2022/09/10 10:31:43;;;;;;;9.90;4.10;;;;;;;;;;5093965;28;20180;-84
2022/09/10 10:34:09;;;;;;;9.18;4.68;;;;;;;;;;5091950;28;20032;-84
2022/09/10 10:37:04;;;;;;;7.00;4.30;;;;;;;;;;5093665;28;20024;-84
2022/09/10 10:39:59;;;;;;;8.10;4.10;;;;;;;;;;5090592;28;20490;-83
2022/09/10 10:42:52;;;;;;;5.60;4.05;;;;;;;;;;5093950;28;20019;-82
2022/09/10 10:45:34;;;;;;;6.88;4.47;;;;;;;;;;5092188;28;20467;-84
2022/09/10 10:48:24;;;;;;;5.38;3.20;;;;;;;;;;5092615;28;20430;-84
2022/09/10 10:51:05;;;;;;;6.57;4.30;;;;;;;;;;5093014;28;20051;-83
2022/09/10 10:53:36;;;;;;;8.65;3.72;;;;;;;;;;5089535;28;20020;-83
2022/09/10 10:56:16;;;;;;;6.32;3.88;;;;;;;;;;5093566;28;20028;-86
2022/09/10 10:58:48;;;;;;;7.13;4.15;;;;;;;;;;5091783;28;20488;-85
2022/09/10 11:01:23;;;;;;;6.57;4.13;;;;;;;;;;5093110;28;20027;-84
2022/09/10 11:03:59;;;;;;;9.70;3.70;;;;;;;;;;5092979;28;20016;-84
2022/09/10 11:06:33;;;;;;;7.55;3.97;;;;;;;;;;5092378;28;20028;-84
2022/09/10 11:09:17;;;;;;;8.13;4.13;;;;;;;;;;5090149;28;20080;-83
2022/09/10 11:11:49;;;;;;;8.52;4.05;;;;;;;;;;5092605;28;20040;-84
2022/09/10 11:14:27;;;;;;;6.85;4.18;;;;;;;;;;5091639;28;20400;-83
2022/09/10 11:17:01;;;;;;;5.90;4.07;;;;;;;;;;5092685;28;20028;-86
2022/09/10 11:19:46;;;;;;;4.85;3.95;;;;;;;;;;5093054;28;20510;-86
2022/09/10 11:22:22;;;;;;;5.50;3.70;;;;;;;;;;5092283;28;20024;-84
2022/09/10 11:24:53;;;;;;;5.68;3.40;;;;;;;;;;5092848;28;20028;-83
2022/09/10 11:27:34;;;;;;;2.50;1.73;;;;;;;;;;5093003;28;20032;-83
2022/09/10 11:30:08;;;;;;;4.75;1.50;;;;;;;;;;5092791;28;20428;-82
2022/09/10 11:32:39;;;;;;;1.65;1.05;;;;;;;;;;5093087;28;20016;-83
2022/09/10 11:35:23;;;;;;;1.58;1.00;;;;;;;;;;5088825;28;20032;-83
2022/09/10 11:38:17;;;;;;;1.98;1.25;;;;;;;;;;5091634;28;20028;-82
2022/09/10 11:40:52;;;;;;;3.28;1.58;;;;;;;;;;5092815;28;20383;-81
2022/09/10 11:43:42;;;;;;;6.25;1.58;;;;;;;;;;5091628;28;20042;-84
2022/09/10 11:46:18;;;;;;;2.42;1.50;;;;;;;;;;5090964;28;20384;-83
2022/09/10 11:48:49;;;;;;;2.22;1.20;;;;;;;;;;5092038;28;20538;-84
2022/09/10 11:51:21;;;;;;;2.80;1.52;;;;;;;;;;5092106;28;20069;-85
2022/09/10 11:53:47;;;;;;;2.80;1.52;;;;;;;;;;5092108;28;20034;-83
2022/09/10 11:56:21;;;;;;;3.45;1.67;;;;;;;;;;5091883;28;20028;-83
2022/09/10 11:59:27;;;;;;;3.85;1.63;;;;;;;;;;5090947;28;20472;-82
2022/09/10 12:02:30;;;;;;;5.00;1.65;;;;;;;;;;5092316;28;20371;-83
2022/09/10 12:05:17;;;;;;;2.05;1.38;;;;;;;;;;5088490;28;20403;-82
2022/09/10 12:08:04;;;;;;;2.70;1.60;;;;;;;;;;5090229;28;20052;-83
2022/09/10 12:10:31;;;;;;;5.13;1.80;;;;;;;;;;5087099;28;20229;-84
2022/09/10 12:12:57;;;;;;;4.93;1.60;;;;;;;;;;5087977;28;20024;-83
2022/09/10 12:15:25;;;;;;;5.75;2.10;;;;;;;;;;5091592;28;20524;-84
2022/09/10 12:17:58;;;;;;;3.00;2.00;;;;;;;;;;5091721;28;20035;-84
2022/09/10 12:20:28;;;;;;;3.50;1.77;;;;;;;;;;5091641;28;20028;-84
2022/09/10 12:22:54;;;;;;;4.32;1.73;;;;;;;;;;5091884;28;20744;-84
2022/09/10 12:25:20;;;;;;;3.30;1.60;;;;;;;;;;5091418;28;20364;-83
2022/09/10 12:27:51;;;;;;;2.05;1.48;;;;;;;;;;5091680;28;20082;-83
2022/09/10 12:30:28;;;;;;;1.92;1.40;;;;;;;;;;5091608;28;20063;-83
2022/09/10 12:32:59;;;;;;;6.15;2.63;;;;;;;;;;5091361;28;20055;-83
2022/09/10 12:35:33;;;;;;;3.08;1.83;;;;;;;;;;5091390;28;20024;-84
2022/09/10 12:38:37;;;;;;;2.17;1.95;;;;;;;;;;5091131;28;20028;-84
2022/09/10 12:41:14;;;;;;;3.47;1.85;;;;;;;;;;5089535;28;20024;-84
2022/09/10 12:43:39;;;;;;;4.13;2.35;;;;;;;;;;5090997;28;20028;-83
2022/09/10 12:46:08;;;;;;;2.42;1.65;;;;;;;;;;5091204;28;20024;-82
2022/09/10 12:48:46;;;;;;;4.63;2.30;;;;;;;;;;5090969;28;20034;-82
2022/09/10 12:51:17;;;;;;;4.80;2.30;;;;;;;;;;5123133;27;20071;-83
2022/09/10 12:53:55;;;;;;;3.67;2.30;;;;;;;;;;5091131;28;20028;-82
2022/09/10 12:56:38;;;;;;;4.07;1.77;;;;;;;;;;5087248;28;20472;-82
2022/09/10 12:59:17;;;;;;;4.65;2.60;;;;;;;;;;5090727;28;20566;-82
2022/09/10 13:01:46;;;;;;;6.57;2.33;;;;;;;;;;5090826;28;20102;-83
2022/09/10 13:04:46;;;;;;;4.22;2.45;;;;;;;;;;5088640;28;20028;-82
2022/09/10 13:07:22;;;;;;;;;;;;;;;;;;5087647;28;20101;-82
2022/09/10 13:10:19;;;;;;;6.47;2.30;;;;;;;;;;5088906;28;19920;-81
2022/09/10 13:12:47;;;;;;;3.03;2.35;;;;;;;;;;5086534;28;20048;-82
2022/09/10 13:15:19;;;;;;;4.03;2.80;;;;;;;;;;5089117;28;20089;-81
2022/09/10 13:17:49;;;;;;;5.32;2.35;;;;;;;;;;5090679;28;20376;-84
2022/09/10 13:20:20;;;;;;;8.55;3.08;;;;;;;;;;5090315;28;20028;-80
2022/09/10 13:23:03;;;;;;;4.03;2.65;;;;;;;;;;5091317;28;20024;-82
2022/09/10 13:25:50;;;;;;;5.25;2.28;;;;;;;;;;5089405;28;20408;-80
2022/09/10 13:28:27;;;;;;;3.70;2.70;;;;;;;;;;5090190;28;20016;-81
2022/09/10 13:31:13;;;;;;;3.28;2.30;;;;;;;;;;5089229;28;20364;-82
2022/09/10 13:33:51;;;;;;;3.33;2.10;;;;;;;;;;5090461;28;20028;-81
2022/09/10 13:36:31;;;;;;;3.30;1.90;;;;;;;;;;5090539;28;20497;-84
2022/09/10 13:39:36;;;;;;;3.00;1.92;;;;;;;;;;5089954;28;20541;-83
2022/09/10 13:42:35;;;;;;;2.35;1.80;;;;;;;;;;5080730;28;20071;-85
2022/09/10 13:45:12;;;;;;;8.65;2.60;;;;;;;;;;5090527;28;20032;-83
2022/09/10 13:48:00;;;;;;;5.05;2.17;;;;;;;;;;5088909;28;20044;-84
2022/09/10 13:50:39;;;;;;;3.63;2.13;;;;;;;;;;5090537;28;20028;-81
2022/09/10 13:53:07;;;;;;;2.63;1.77;;;;;;;;;;5089928;28;20122;-83
2022/09/10 13:55:33;;;;;;;3.15;1.73;;;;;;;;;;5090009;28;20028;-82
2022/09/10 13:58:07;;;;;;;3.28;2.10;;;;;;;;;;5089980;28;20030;-83
2022/09/10 14:00:41;;;;;;;2.25;1.85;;;;;;;;;;5090203;28;20430;-81
2022/09/10 14:03:18;;;;;;;3.28;2.05;;;;;;;;;;5089961;28;20090;-82
2022/09/10 14:05:50;;;;;;;3.60;2.00;;;;;;;;;;5090174;28;20499;-84
2022/09/10 14:08:23;;;;;;;4.00;1.85;;;;;;;;;;5088746;28;20415;-83
2022/09/10 14:11:06;;;;;;;3.42;1.67;;;;;;;;;;5089964;28;20040;-81
2022/09/10 14:13:38;;;;;;;2.85;1.80;;;;;;;;;;5089687;28;20365;-87
2022/09/10 14:16:08;;;;;;;4.82;1.77;;;;;;;;;;5090001;28;20031;-83
2022/09/10 14:18:38;;;;;;;;;;;;;;;;;;5090069;28;20371;-84
2022/09/10 14:21:04;;;;;;;11.13;5.18;;;;;;;;;;5090104;28;19961;-85
2022/09/10 14:23:30;;;;;;;14.15;7.63;;;;;;;;;;5089766;28;20062;-83
2022/09/10 14:26:25;;;;;;;9.00;5.00;;;;;;;;;;5090017;28;20412;-83
2022/09/10 14:29:03;;;;;;;3.45;1.92;;;;;;;;;;5089901;28;20023;-85
2022/09/10 14:31:32;;;;;;;6.10;2.15;;;;;;;;;;5089756;28;20024;-82
2022/09/10 14:33:58;;;;;;;5.45;2.08;;;;;;;;;;5093206;28;20464;-85
2022/09/10 14:36:26;;;;;;;2.58;1.67;;;;;;;;;;5093437;28;20035;-82
2022/09/10 14:39:17;;;;;;;13.70;6.85;;;;;;;;;;5093460;28;20486;-84
2022/09/10 14:41:43;;;;;;;7.85;4.78;;;;;;;;;;5088865;28;20071;-82
2022/09/10 14:44:21;;;;;;;3.45;2.30;;;;;;;;;;5093291;28;20035;-82
2022/09/10 14:47:00;;;;;;;2.63;1.42;;;;;;;;;;5093664;28;20059;-86
2022/09/10 14:49:31;;;;;;;6.72;1.90;;;;;;;;;;5092173;28;20035;-85
2022/09/10 14:51:57;;;;;;;6.30;1.98;;;;;;;;;;5089731;28;20061;-85
2022/09/10 14:54:25;;;;;;;3.40;1.88;;;;;;;;;;5092997;28;20039;-83
2022/09/10 14:56:53;;;;;;;3.60;1.30;;;;;;;;;;5093271;28;20028;-86
2022/09/10 14:59:24;;;;;;;2.08;1.48;;;;;;;;;;5093105;28;20027;-82
2022/09/10 15:01:50;;;;;;;2.83;1.73;;;;;;;;;;5092252;28;20468;-84
2022/09/10 15:04:22;;;;;;;3.25;2.00;;;;;;;;;;5093157;28;20038;-84
2022/09/10 15:06:51;;;;;;;2.65;1.55;;;;;;;;;;5093028;28;20134;-82